Time;durP1;ratioP1;P1;durP2;ratioP2;P2;SDS_P1;SDS_P2;PMS_P1;PMS_P2;Temp;Humidity;BMP_temperature;BMP_pressure;BME280_temperature;BME280_humidity;BME280_pressure;Samples;Min_cycle;Max_cycle;Signal;HPM_P1;HPM_P2
2021/12/19 00:00:31;;;;;;;25.05;10.88;;;7.10;85.30;;;;;;6197902;28;20039;-78
2021/12/19 00:03:49;;;;;;;28.33;10.88;;;7.10;85.60;;;;;;6198390;28;20104;-78
2021/12/19 00:10:10;;;;;;;30.80;11.18;;;7.10;85.60;;;;;;6198396;28;20503;-78
2021/12/19 00:13:13;;;;;;;25.05;9.43;;;7.10;85.50;;;;;;6198656;28;20042;-78
2021/12/19 00:16:17;;;;;;;23.83;10.18;;;7.00;85.60;;;;;;6198418;28;20411;-78
2021/12/19 00:19:19;;;;;;;24.33;9.35;;;7.00;85.90;;;;;;6199663;28;20050;-78
2021/12/19 00:22:21;;;;;;;29.42;10.85;;;7.00;86.10;;;;;;6199152;28;20061;-78
2021/12/19 00:25:23;;;;;;;25.63;10.88;;;7.00;86.20;;;;;;6197652;28;20048;-77
2021/12/19 00:28:25;;;;;;;33.47;11.38;;;6.90;86.30;;;;;;6198505;28;20046;-80
2021/12/19 00:31:28;;;;;;;31.42;11.98;;;7.00;86.40;;;;;;6202421;28;20086;-81
2021/12/19 00:34:30;;;;;;;32.25;11.48;;;6.90;86.30;;;;;;6197513;28;20050;-78
2021/12/19 00:37:32;;;;;;;30.48;11.98;;;6.90;86.50;;;;;;6197599;28;20053;-77
2021/12/19 00:40:34;;;;;;;26.88;10.93;;;6.90;86.60;;;;;;6197617;28;20046;-78
2021/12/19 00:43:44;;;;;;;24.52;10.70;;;6.90;86.70;;;;;;6200132;28;20054;-78
2021/12/19 00:46:50;;;;;;;30.58;12.13;;;6.90;86.80;;;;;;6202356;28;20053;-77
2021/12/19 00:49:51;;;;;;;31.77;10.73;;;6.90;86.50;;;;;;6201832;28;20046;-77
2021/12/19 00:52:53;;;;;;;28.38;10.85;;;6.90;86.50;;;;;;6201975;28;20076;-78
2021/12/19 00:55:55;;;;;;;26.00;11.18;;;7.00;86.40;;;;;;6202334;28;20051;-77
2021/12/19 00:58:57;;;;;;;30.63;11.50;;;7.00;86.40;;;;;;6202960;28;20427;-81
2021/12/19 01:02:01;;;;;;;31.00;10.90;;;7.00;86.30;;;;;;6203024;28;20133;-78
2021/12/19 01:05:04;;;;;;;25.13;10.80;;;7.00;86.20;;;;;;6202232;28;20424;-78
2021/12/19 01:08:06;;;;;;;30.77;11.10;;;7.10;86.20;;;;;;6202181;28;20123;-78
2021/12/19 01:11:08;;;;;;;31.17;9.38;;;7.00;86.10;;;;;;6202475;28;20057;-78
2021/12/19 01:14:10;;;;;;;26.05;10.38;;;7.10;86.20;;;;;;6202448;28;20054;-78
2021/12/19 01:17:13;;;;;;;26.98;10.00;;;7.10;86.00;;;;;;6201944;28;20512;-78
2021/12/19 01:20:18;;;;;;;22.85;9.73;;;7.10;85.90;;;;;;6184598;28;20049;-79
2021/12/19 01:23:21;;;;;;;23.73;9.82;;;7.10;85.70;;;;;;6177495;28;20061;-77
2021/12/19 01:26:23;;;;;;;25.95;9.85;;;7.10;85.80;;;;;;6176664;28;20428;-78
2021/12/19 01:29:25;;;;;;;33.15;11.35;;;7.10;85.90;;;;;;6177016;28;20057;-77
2021/12/19 01:32:28;;;;;;;27.52;11.02;;;7.10;86.00;;;;;;6176977;28;20046;-78
2021/12/19 01:35:30;;;;;;;23.20;8.32;;;7.10;86.00;;;;;;6177117;28;20059;-77
2021/12/19 01:38:32;;;;;;;21.70;8.63;;;7.10;86.00;;;;;;6176386;28;20087;-78
2021/12/19 01:41:42;;;;;;;23.35;9.77;;;7.10;86.00;;;;;;6177164;28;20150;-78
2021/12/19 01:44:46;;;;;;;27.85;9.70;;;7.00;85.90;;;;;;6176211;28;20134;-78
2021/12/19 01:47:50;;;;;;;23.17;8.70;;;6.90;85.90;;;;;;6176191;28;20058;-78
2021/12/19 01:50:53;;;;;;;22.70;8.82;;;6.70;86.40;;;;;;6176542;28;20046;-77
2021/12/19 01:53:54;;;;;;;28.17;8.73;;;6.60;86.70;;;;;;6175568;28;20129;-77
2021/12/19 01:56:56;;;;;;;30.65;9.85;;;6.50;87.20;;;;;;6175619;28;20043;-78
2021/12/19 01:59:58;;;;;;;24.58;8.13;;;6.50;87.50;;;;;;6176514;28;20427;-78
2021/12/19 02:03:02;;;;;;;23.58;8.77;;;6.50;87.70;;;;;;6177019;28;20057;-78
2021/12/19 02:06:05;;;;;;;25.15;10.23;;;6.50;87.60;;;;;;6175693;28;20047;-78
2021/12/19 02:09:08;;;;;;;27.52;9.48;;;6.50;87.80;;;;;;6176210;28;20492;-78
2021/12/19 02:12:10;;;;;;;22.98;8.15;;;6.50;87.80;;;;;;6175745;28;20416;-77
2021/12/19 02:15:16;;;;;;;20.40;8.48;;;6.60;87.90;;;;;;6175936;28;20072;-78
2021/12/19 02:18:21;;;;;;;21.00;8.55;;;6.60;87.70;;;;;;6175126;28;20053;-77
2021/12/19 02:21:24;;;;;;;22.10;9.35;;;6.50;87.90;;;;;;6175842;28;20181;-77
2021/12/19 02:24:26;;;;;;;31.90;10.85;;;6.40;88.20;;;;;;6175371;28;20655;-77
2021/12/19 02:27:29;;;;;;;22.25;9.00;;;6.30;88.40;;;;;;6175653;28;20541;-78
2021/12/19 02:30:31;;;;;;;24.30;8.70;;;6.30;88.70;;;;;;6175036;28;20050;-78
2021/12/19 02:33:37;;;;;;;28.80;8.63;;;6.30;88.70;;;;;;6175151;28;20061;-78
2021/12/19 02:36:58;;;;;;;25.08;8.85;;;6.40;88.60;;;;;;6174840;28;20058;-78
2021/12/19 02:40:24;;;;;;;21.70;9.02;;;6.50;88.50;;;;;;6174800;28;20042;-77
2021/12/19 02:50:08;;;;;;;25.05;9.77;;;6.50;88.10;;;;;;6174551;28;20500;-77
2021/12/19 02:53:12;;;;;;;21.52;8.77;;;6.40;88.50;;;;;;6174822;28;20051;-78
2021/12/19 02:56:14;;;;;;;25.48;8.57;;;6.40;88.40;;;;;;6174604;28;20042;-77
2021/12/19 02:59:16;;;;;;;22.48;9.05;;;6.50;88.30;;;;;;6175595;28;20046;-77
2021/12/19 03:02:18;;;;;;;24.65;9.18;;;6.40;88.20;;;;;;6174873;28;20049;-78
2021/12/19 03:05:20;;;;;;;19.63;8.40;;;6.30;88.50;;;;;;6174656;28;20047;-77
2021/12/19 03:08:24;;;;;;;17.25;7.90;;;6.30;88.90;;;;;;6174992;28;20047;-77
2021/12/19 03:18:11;;;;;;;21.63;9.15;;;6.50;88.30;;;;;;6153817;28;20046;-77
2021/12/19 03:21:16;;;;;;;24.10;8.50;;;6.50;88.20;;;;;;6174028;28;20073;-77
2021/12/19 03:24:19;;;;;;;18.33;8.13;;;6.50;88.20;;;;;;6174251;28;20049;-78
2021/12/19 03:27:21;;;;;;;18.52;8.13;;;6.60;88.30;;;;;;6174607;28;20057;-77
2021/12/19 03:30:22;;;;;;;21.33;8.05;;;6.50;88.20;;;;;;6173868;28;20050;-77
2021/12/19 03:33:24;;;;;;;17.58;6.97;;;6.60;88.20;;;;;;6174097;28;20094;-77
2021/12/19 03:36:27;;;;;;;19.38;8.27;;;6.60;88.10;;;;;;6173737;28;20121;-77
2021/12/19 03:39:44;;;;;;;16.83;6.68;;;6.70;87.90;;;;;;6174226;28;20062;-78
2021/12/19 03:42:49;;;;;;;15.45;7.00;;;6.70;87.60;;;;;;6174670;28;20485;-78
2021/12/19 03:45:51;;;;;;;20.58;7.90;;;6.60;87.60;;;;;;6173655;28;20479;-78
2021/12/19 03:48:53;;;;;;;21.13;8.27;;;6.60;87.80;;;;;;6173988;28;20178;-78
2021/12/19 03:51:54;;;;;;;23.92;8.98;;;6.60;87.70;;;;;;6174331;28;20108;-77
2021/12/19 03:54:58;;;;;;;19.83;7.20;;;6.60;87.70;;;;;;6174325;28;20075;-78
2021/12/19 03:58:02;;;;;;;16.65;7.43;;;6.60;87.90;;;;;;6173856;28;20054;-78
2021/12/19 04:01:07;;;;;;;16.67;6.13;;;6.60;88.00;;;;;;6173657;28;20046;-77
2021/12/19 04:04:09;;;;;;;15.80;6.05;;;6.70;87.70;;;;;;6173923;28;20121;-78
2021/12/19 04:07:11;;;;;;;16.02;7.13;;;6.70;87.60;;;;;;6174320;28;20145;-79
2021/12/19 04:10:15;;;;;;;14.52;7.10;;;6.70;87.30;;;;;;6174476;28;20178;-77
2021/12/19 04:13:19;;;;;;;13.25;6.10;;;6.70;87.10;;;;;;6173704;28;20069;-78
2021/12/19 04:16:21;;;;;;;16.10;6.03;;;6.80;87.10;;;;;;6173709;28;20047;-78
2021/12/19 04:19:22;;;;;;;14.02;6.25;;;6.80;87.10;;;;;;6182220;28;20078;-80
2021/12/19 04:22:24;;;;;;;17.65;6.53;;;6.90;86.60;;;;;;6181983;28;20097;-78
2021/12/19 04:25:28;;;;;;;21.48;6.85;;;6.70;86.60;;;;;;6183239;28;20532;-78
2021/12/19 04:28:29;;;;;;;12.93;6.35;;;6.70;86.80;;;;;;6183432;28;20049;-79
2021/12/19 04:31:31;;;;;;;15.15;6.55;;;6.70;86.70;;;;;;6184165;28;20497;-80
2021/12/19 04:34:33;;;;;;;13.32;5.82;;;6.70;86.40;;;;;;6183069;28;20062;-80
2021/12/19 04:38:02;;;;;;;15.70;6.85;;;6.70;86.30;;;;;;6184306;28;20046;-80
2021/12/19 04:51:14;;;;;;;14.23;5.40;;;6.80;86.20;;;;;;6181974;28;20047;-79
2021/12/19 04:54:28;;;;;;;21.55;8.20;;;6.80;86.20;;;;;;6182715;28;20420;-79
2021/12/19 04:57:37;;;;;;;32.08;16.13;;;6.80;86.20;;;;;;6182611;28;20058;-78
2021/12/19 05:00:46;;;;;;;25.67;10.93;;;6.80;86.10;;;;;;6183058;28;20090;-80
2021/12/19 05:04:01;;;;;;;30.15;9.88;;;6.70;85.70;;;;;;6182962;28;20051;-80
2021/12/19 05:17:06;;;;;;;54.25;30.58;;;6.50;86.50;;;;;;6231724;28;20041;-79
2021/12/19 05:20:14;;;;;;;30.80;17.20;;;6.50;86.40;;;;;;6231698;28;20042;-78
2021/12/19 05:23:23;;;;;;;;;;;6.50;86.50;;;;;;6233559;28;20054;-78
2021/12/19 05:26:25;;;;;;;26.05;11.10;;;6.40;86.30;;;;;;6232152;28;19922;-79
2021/12/19 05:29:28;;;;;;;23.45;9.98;;;6.30;86.60;;;;;;6229545;28;20053;-78
2021/12/19 05:32:29;;;;;;;27.15;10.43;;;6.20;86.90;;;;;;6229780;28;20064;-79
2021/12/19 05:35:52;;;;;;;24.83;8.70;;;6.10;87.30;;;;;;6229685;28;20050;-79
2021/12/19 05:45:34;;;;;;;30.00;9.38;;;6.00;87.30;;;;;;6204633;28;20512;-79
2021/12/19 05:48:35;;;;;;;24.00;10.38;;;5.90;87.90;;;;;;6205104;28;20129;-79
2021/12/19 05:51:38;;;;;;;23.00;9.75;;;5.90;88.00;;;;;;6205784;28;20050;-78
2021/12/19 05:54:40;;;;;;;23.40;9.02;;;5.90;88.10;;;;;;6211306;28;20419;-77
2021/12/19 05:57:42;;;;;;;24.05;9.52;;;5.80;88.10;;;;;;6215850;28;20060;-77
2021/12/19 06:00:45;;;;;;;23.30;8.65;;;5.80;88.20;;;;;;6209786;28;20667;-79
2021/12/19 06:03:47;;;;;;;23.95;9.95;;;5.80;88.30;;;;;;6206098;28;20062;-79
2021/12/19 06:06:51;;;;;;;24.70;9.15;;;5.80;88.40;;;;;;6206800;28;20165;-79
2021/12/19 06:09:52;;;;;;;19.48;8.10;;;5.80;88.30;;;;;;6206790;28;20050;-79
2021/12/19 06:12:54;;;;;;;23.90;7.53;;;5.80;88.50;;;;;;6206943;28;20053;-78
2021/12/19 06:15:57;;;;;;;18.50;7.55;;;5.70;88.40;;;;;;6207797;28;20185;-78
2021/12/19 06:18:59;;;;;;;19.58;7.38;;;5.70;88.80;;;;;;6207228;28;20054;-79
2021/12/19 06:22:01;;;;;;;17.00;7.00;;;5.60;89.10;;;;;;6205674;28;20053;-79
2021/12/19 06:25:04;;;;;;;19.27;6.40;;;5.50;89.20;;;;;;6204836;28;20106;-79
2021/12/19 06:28:06;;;;;;;17.05;6.95;;;5.50;89.30;;;;;;6204435;28;20504;-79
2021/12/19 06:31:09;;;;;;;16.98;6.93;;;5.50;89.50;;;;;;6205573;28;20374;-79
2021/12/19 06:34:11;;;;;;;15.35;5.80;;;5.40;89.60;;;;;;6206332;28;20054;-77
2021/12/19 06:37:13;;;;;;;24.20;8.05;;;5.50;89.90;;;;;;6204770;28;20105;-78
2021/12/19 06:40:18;;;;;;;25.30;8.75;;;5.40;90.00;;;;;;6205854;28;20042;-80
2021/12/19 06:43:20;;;;;;;23.77;8.50;;;5.40;89.90;;;;;;6205544;28;20057;-80
2021/12/19 06:46:23;;;;;;;24.88;7.80;;;5.50;89.80;;;;;;6204612;28;20101;-79
2021/12/19 06:49:25;;;;;;;20.70;7.57;;;5.50;90.00;;;;;;6205357;28;20050;-79
2021/12/19 06:52:26;;;;;;;19.27;7.10;;;5.50;89.90;;;;;;6204658;28;20128;-79
2021/12/19 06:55:28;;;;;;;18.92;7.43;;;5.60;89.90;;;;;;6204759;28;20132;-78
2021/12/19 06:58:30;;;;;;;18.67;7.90;;;5.60;89.80;;;;;;6204253;28;20103;-80
2021/12/19 07:01:33;;;;;;;14.23;6.40;;;5.60;89.90;;;;;;6203977;28;20042;-78
2021/12/19 07:04:35;;;;;;;20.00;6.45;;;5.50;90.00;;;;;;6204026;28;20492;-80
2021/12/19 07:07:37;;;;;;;19.00;7.43;;;5.50;90.00;;;;;;6205783;28;20464;-79
2021/12/19 07:10:39;;;;;;;16.30;5.80;;;5.50;90.10;;;;;;6228092;28;20046;-80
2021/12/19 07:13:40;;;;;;;14.65;6.20;;;5.40;90.20;;;;;;6228968;28;20500;-77
2021/12/19 07:16:44;;;;;;;17.05;6.78;;;5.40;90.30;;;;;;6228193;28;20116;-82
2021/12/19 07:19:45;;;;;;;14.90;6.10;;;5.50;90.40;;;;;;6228934;28;20046;-81
2021/12/19 07:22:47;;;;;;;14.25;5.78;;;5.40;90.20;;;;;;6229228;28;20053;-79
2021/12/19 07:25:49;;;;;;;19.55;7.35;;;5.50;90.30;;;;;;6228425;28;20045;-79
2021/12/19 07:28:51;;;;;;;24.42;7.25;;;5.50;90.30;;;;;;6228261;28;20056;-78
2021/12/19 07:31:54;;;;;;;20.67;7.30;;;5.50;90.20;;;;;;6227355;28;20128;-79
2021/12/19 07:34:56;;;;;;;17.50;6.45;;;5.60;90.10;;;;;;6228088;28;20150;-79
2021/12/19 07:37:58;;;;;;;16.98;6.25;;;5.70;90.10;;;;;;6227686;28;20046;-78
2021/12/19 07:41:02;;;;;;;17.27;6.15;;;5.70;90.00;;;;;;6227896;28;20041;-79
2021/12/19 07:44:04;;;;;;;16.92;5.30;;;5.80;90.00;;;;;;6227487;28;20046;-77
2021/12/19 07:47:07;;;;;;;16.80;5.82;;;5.80;89.50;;;;;;6228086;28;20496;-79
2021/12/19 07:50:11;;;;;;;19.38;6.95;;;5.70;89.60;;;;;;6227686;28;20515;-79
2021/12/19 07:53:14;;;;;;;18.17;6.20;;;5.60;89.70;;;;;;6226865;28;20053;-79
2021/12/19 07:56:16;;;;;;;18.20;6.78;;;5.70;90.10;;;;;;6227270;28;20117;-79
2021/12/19 07:59:18;;;;;;;18.80;5.72;;;5.70;90.00;;;;;;6228076;28;20488;-79
2021/12/19 08:02:21;;;;;;;13.70;5.47;;;5.70;89.80;;;;;;6228374;28;20474;-81
2021/12/19 08:05:23;;;;;;;18.73;6.68;;;5.70;89.80;;;;;;6227228;28;20049;-78
2021/12/19 08:08:28;;;;;;;14.77;6.22;;;5.60;89.90;;;;;;6200820;28;20440;-79
2021/12/19 08:11:42;;;;;;;14.38;6.30;;;5.70;90.00;;;;;;6227722;28;20049;-80
2021/12/19 08:14:44;;;;;;;12.27;5.97;;;5.70;90.00;;;;;;6203947;28;20062;-79
2021/12/19 08:17:47;;;;;;;19.23;6.18;;;5.70;89.80;;;;;;6203689;28;20512;-82
2021/12/19 08:20:49;;;;;;;14.75;7.22;;;5.70;89.90;;;;;;6203601;28;20559;-80
2021/12/19 08:23:50;;;;;;;14.18;5.95;;;5.70;89.80;;;;;;6203784;28;20050;-82
2021/12/19 08:26:55;;;;;;;18.10;6.15;;;5.60;89.90;;;;;;6204677;28;20074;-82
2021/12/19 08:29:57;;;;;;;14.13;6.03;;;5.60;90.00;;;;;;6203740;28;20077;-80
2021/12/19 08:33:00;;;;;;;18.52;6.15;;;5.60;90.10;;;;;;6204028;28;20087;-82
2021/12/19 08:36:02;;;;;;;15.45;5.80;;;5.60;90.00;;;;;;6203367;28;20496;-81
2021/12/19 08:39:04;;;;;;;19.85;6.07;;;5.70;90.00;;;;;;6204399;28;20046;-81
2021/12/19 08:42:07;;;;;;;16.75;5.55;;;5.60;90.00;;;;;;6204696;28;20043;-82
2021/12/19 08:45:10;;;;;;;11.52;5.30;;;5.60;90.10;;;;;;6204757;28;20050;-82
2021/12/19 08:48:14;;;;;;;12.35;5.10;;;5.60;90.10;;;;;;6204712;28;20046;-82
2021/12/19 08:51:16;;;;;;;19.90;5.35;;;5.50;90.30;;;;;;6205104;28;20062;-82
2021/12/19 08:54:18;;;;;;;15.48;5.18;;;5.60;90.30;;;;;;6205027;28;20053;-79
2021/12/19 08:57:20;;;;;;;9.80;4.68;;;5.50;90.20;;;;;;6204154;28;20051;-80
2021/12/19 09:00:22;;;;;;;13.77;4.78;;;5.50;90.30;;;;;;6204750;28;20074;-80
2021/12/19 09:03:25;;;;;;;13.40;5.05;;;5.50;90.40;;;;;;6205483;28;20504;-82
2021/12/19 09:06:27;;;;;;;14.40;6.28;;;5.60;90.40;;;;;;6222283;28;20076;-81
2021/12/19 09:09:29;;;;;;;11.68;4.55;;;5.60;90.30;;;;;;6206867;28;20125;-78
2021/12/19 09:12:31;;;;;;;15.82;5.57;;;5.60;90.30;;;;;;6206449;28;20052;-78
2021/12/19 09:15:33;;;;;;;10.00;4.22;;;5.50;90.30;;;;;;6206524;28;20204;-82
2021/12/19 09:18:36;;;;;;;11.52;5.20;;;5.50;90.40;;;;;;6205911;28;20061;-82
2021/12/19 09:21:41;;;;;;;11.93;4.70;;;5.50;90.40;;;;;;6207444;28;20053;-78
2021/12/19 09:24:43;;;;;;;16.95;5.78;;;5.50;90.50;;;;;;6205603;28;20579;-79
2021/12/19 09:27:45;;;;;;;14.55;4.80;;;5.50;90.60;;;;;;6206605;28;20054;-80
2021/12/19 09:30:47;;;;;;;12.30;5.38;;;5.50;90.40;;;;;;6221392;28;20050;-78
2021/12/19 09:33:50;;;;;;;13.70;5.63;;;5.50;90.40;;;;;;6226369;28;20058;-80
2021/12/19 09:36:52;;;;;;;11.88;4.72;;;5.50;90.40;;;;;;6209078;28;20125;-79
2021/12/19 09:39:54;;;;;;;12.60;4.65;;;5.50;90.50;;;;;;6209448;28;20129;-80
2021/12/19 09:43:01;;;;;;;21.70;5.68;;;5.50;90.60;;;;;;6208733;28;20137;-80
2021/12/19 09:46:03;;;;;;;14.90;5.60;;;5.50;90.50;;;;;;6207458;28;20051;-78
2021/12/19 09:49:07;;;;;;;15.50;5.22;;;5.50;90.50;;;;;;6208101;28;20188;-80
2021/12/19 09:52:09;;;;;;;11.43;5.22;;;5.50;90.50;;;;;;6207330;28;20042;-79
2021/12/19 09:55:11;;;;;;;19.27;5.68;;;5.60;90.50;;;;;;6207886;28;20054;-79
2021/12/19 09:58:13;;;;;;;19.05;6.30;;;5.60;90.60;;;;;;6206838;28;20057;-80
2021/12/19 10:01:15;;;;;;;16.27;6.88;;;5.70;90.50;;;;;;6206500;28;20520;-79
2021/12/19 10:04:33;;;;;;;16.50;6.38;;;5.70;90.40;;;;;;6207408;28;20097;-79
2021/12/19 10:07:47;;;;;;;16.52;6.38;;;5.60;90.30;;;;;;6204343;28;21242;-82
2021/12/19 10:10:55;;;;;;;13.95;5.97;;;5.70;90.50;;;;;;6207335;28;20042;-83
2021/12/19 10:13:57;;;;;;;19.85;6.93;;;5.70;90.30;;;;;;6217704;28;20066;-81
2021/12/19 10:17:01;;;;;;;14.40;6.38;;;5.70;90.30;;;;;;6217935;28;20104;-79
2021/12/19 10:20:06;;;;;;;18.92;6.07;;;5.70;90.50;;;;;;6222449;28;20096;-76
2021/12/19 10:23:13;;;;;;;16.70;5.88;;;5.70;90.30;;;;;;6224504;28;20192;-76
2021/12/19 10:26:14;;;;;;;14.20;6.63;;;5.70;90.20;;;;;;6202969;28;20133;-77
2021/12/19 10:29:16;;;;;;;12.93;5.68;;;5.70;90.20;;;;;;6200192;28;20504;-78
2021/12/19 10:32:18;;;;;;;11.18;5.22;;;5.70;90.30;;;;;;6200066;28;20558;-77
2021/12/19 10:35:25;;;;;;;15.05;6.75;;;5.60;90.30;;;;;;6200168;28;20085;-77
2021/12/19 10:38:30;;;;;;;22.88;10.45;;;5.70;90.40;;;;;;6199630;28;20046;-77
2021/12/19 10:41:34;;;;;;;20.27;7.25;;;5.80;90.40;;;;;;6200342;28;20105;-80
2021/12/19 10:48:16;;;;;;;17.60;6.82;;;5.90;90.10;;;;;;6224035;28;20057;-77
2021/12/19 10:51:20;;;;;;;17.02;6.63;;;6.00;90.10;;;;;;6224390;28;20050;-77
2021/12/19 10:54:22;;;;;;;14.30;6.65;;;6.00;90.10;;;;;;6223604;28;20046;-82
2021/12/19 10:57:32;;;;;;;13.52;6.00;;;6.00;89.90;;;;;;6223079;28;20537;-77
2021/12/19 11:00:39;;;;;;;13.73;6.72;;;6.00;89.80;;;;;;6224142;28;20099;-77
2021/12/19 11:03:44;;;;;;;17.08;6.53;;;6.00;90.00;;;;;;6223671;28;20728;-78
2021/12/19 11:06:49;;;;;;;18.58;7.18;;;6.00;89.20;;;;;;6224600;28;20519;-78
2021/12/19 11:09:51;;;;;;;12.85;6.22;;;6.00;89.80;;;;;;6223410;28;20072;-76
2021/12/19 11:13:06;;;;;;;17.17;6.90;;;6.00;89.80;;;;;;6223207;28;20045;-77
2021/12/19 11:16:08;;;;;;;16.88;6.40;;;6.00;89.80;;;;;;6222852;28;20536;-79
2021/12/19 11:19:10;;;;;;;14.80;6.40;;;6.10;89.60;;;;;;6223114;28;20441;-78
2021/12/19 11:22:23;;;;;;;14.60;7.00;;;6.10;89.90;;;;;;6201807;28;20043;-79
2021/12/19 11:25:25;;;;;;;17.77;6.97;;;6.20;89.20;;;;;;6198610;28;20049;-78
2021/12/19 11:28:27;;;;;;;13.55;6.78;;;6.20;89.10;;;;;;6197923;28;20038;-78
2021/12/19 11:31:32;;;;;;;15.90;6.20;;;6.10;89.20;;;;;;6199341;28;20082;-78
2021/12/19 11:34:52;;;;;;;12.57;5.50;;;6.10;89.10;;;;;;6198240;28;20053;-79
2021/12/19 11:37:59;;;;;;;12.82;6.13;;;6.10;88.90;;;;;;6198344;28;20189;-77
2021/12/19 11:41:07;;;;;;;14.55;7.63;;;6.10;89.00;;;;;;6182698;28;20191;-79
2021/12/19 11:44:29;;;;;;;15.70;6.20;;;6.10;88.80;;;;;;6195184;28;20093;-79
2021/12/19 11:47:47;;;;;;;11.57;5.78;;;6.10;89.20;;;;;;6198916;28;20061;-78
2021/12/19 11:50:52;;;;;;;13.35;6.22;;;6.20;89.00;;;;;;6198813;28;20419;-78
2021/12/19 11:54:13;;;;;;;13.65;6.55;;;6.30;89.10;;;;;;6216653;28;20500;-79
2021/12/19 11:57:21;;;;;;;11.63;4.90;;;6.30;88.70;;;;;;6209549;28;20050;-80
2021/12/19 12:00:28;;;;;;;16.80;6.57;;;6.30;88.10;;;;;;6198878;28;20562;-78
2021/12/19 12:03:32;;;;;;;11.35;5.10;;;6.20;88.50;;;;;;6199734;28;20053;-79
2021/12/19 12:06:44;;;;;;;16.33;5.65;;;6.30;88.30;;;;;;6198975;28;20057;-79
2021/12/19 12:09:56;;;;;;;11.88;5.72;;;6.30;88.00;;;;;;6190271;28;20463;-81
2021/12/19 12:12:58;;;;;;;17.40;6.07;;;6.20;88.10;;;;;;6175196;28;20178;-79
2021/12/19 12:16:40;;;;;;;13.63;6.65;;;6.20;88.10;;;;;;6174720;28;20134;-79
2021/12/19 12:19:44;;;;;;;13.48;5.28;;;6.20;88.30;;;;;;6174420;28;20054;-76
2021/12/19 12:22:55;;;;;;;15.07;4.95;;;6.20;88.40;;;;;;6176643;28;20455;-79
2021/12/19 12:26:26;;;;;;;13.27;5.45;;;6.20;88.00;;;;;;6174677;28;20058;-78
2021/12/19 12:29:28;;;;;;;15.52;6.07;;;6.10;88.00;;;;;;6174968;28;20047;-79
2021/12/19 12:32:30;;;;;;;12.13;5.47;;;6.10;87.80;;;;;;6173876;28;20047;-79
2021/12/19 12:35:34;;;;;;;14.32;5.07;;;6.00;88.00;;;;;;6174794;28;20051;-78
2021/12/19 12:38:36;;;;;;;16.70;6.97;;;6.10;88.50;;;;;;6185205;28;20125;-78
2021/12/19 12:41:51;;;;;;;10.82;5.57;;;6.10;88.10;;;;;;6195078;28;20043;-78
2021/12/19 12:45:02;;;;;;;12.98;4.95;;;6.20;88.00;;;;;;6204203;28;20415;-78
2021/12/19 12:48:04;;;;;;;13.02;5.65;;;6.20;88.00;;;;;;6203248;28;20132;-80
2021/12/19 12:51:09;;;;;;;13.95;5.60;;;6.20;88.00;;;;;;6202968;28;20058;-80
2021/12/19 12:54:12;;;;;;;14.10;5.47;;;6.30;87.90;;;;;;6202768;28;20150;-79
2021/12/19 12:57:16;;;;;;;12.38;5.60;;;6.30;87.70;;;;;;6203315;28;20100;-79
2021/12/19 13:00:20;;;;;;;10.18;4.47;;;6.20;87.10;;;;;;6204991;28;20042;-79
2021/12/19 13:03:30;;;;;;;11.32;6.00;;;6.20;87.70;;;;;;6203646;28;20050;-80
2021/12/19 13:06:42;;;;;;;10.55;5.05;;;6.30;87.70;;;;;;6205214;28;20100;-78
2021/12/19 13:09:45;;;;;;;10.63;4.78;;;6.30;87.20;;;;;;6188558;28;20049;-80
2021/12/19 13:12:51;;;;;;;24.25;10.48;;;6.20;87.40;;;;;;6179807;28;20054;-77
2021/12/19 13:16:03;;;;;;;17.77;6.85;;;6.20;87.50;;;;;;6178720;28;20054;-80
2021/12/19 13:19:04;;;;;;;17.20;6.93;;;6.30;87.60;;;;;;6179283;28;20054;-79
2021/12/19 13:22:08;;;;;;;19.65;7.63;;;6.20;87.30;;;;;;6179342;28;20058;-79
2021/12/19 13:25:12;;;;;;;17.88;8.15;;;6.20;87.60;;;;;;6190536;28;20512;-79
2021/12/19 13:28:20;;;;;;;11.40;6.45;;;6.20;87.50;;;;;;6178367;28;20122;-81
2021/12/19 13:31:23;;;;;;;13.07;6.15;;;6.20;88.10;;;;;;6178526;28;20473;-79
2021/12/19 13:34:38;;;;;;;12.65;6.20;;;6.20;88.10;;;;;;6177361;28;20517;-82
2021/12/19 13:37:48;;;;;;;18.15;7.05;;;6.30;87.80;;;;;;6177420;28;20050;-78
2021/12/19 13:40:52;;;;;;;12.82;6.15;;;6.30;87.90;;;;;;6183610;28;20073;-80
2021/12/19 13:43:57;;;;;;;15.15;6.72;;;6.30;87.90;;;;;;6201856;28;20057;-80
2021/12/19 13:46:59;;;;;;;19.45;7.65;;;6.30;87.90;;;;;;6201559;28;20058;-80
2021/12/19 13:50:03;;;;;;;16.65;7.75;;;6.30;87.90;;;;;;6199819;28;20554;-78
2021/12/19 13:53:06;;;;;;;19.05;6.97;;;6.20;88.10;;;;;;6200172;28;20046;-76
2021/12/19 13:56:11;;;;;;;20.25;8.48;;;6.20;88.80;;;;;;6200214;28;20042;-78
2021/12/19 13:59:21;;;;;;;17.77;6.68;;;6.20;88.30;;;;;;6201086;28;20053;-79
2021/12/19 14:02:23;;;;;;;15.93;7.25;;;6.20;88.30;;;;;;6201378;28;20053;-80
2021/12/19 14:05:37;;;;;;;19.67;9.27;;;6.20;88.10;;;;;;6201095;28;20061;-79
2021/12/19 14:08:39;;;;;;;16.10;7.25;;;6.20;88.10;;;;;;6196059;28;20529;-78
2021/12/19 14:11:43;;;;;;;19.98;9.55;;;6.20;88.10;;;;;;6184042;28;20053;-78
2021/12/19 14:14:47;;;;;;;20.77;9.20;;;6.10;88.10;;;;;;6176649;28;20137;-78
2021/12/19 14:17:50;;;;;;;29.13;12.20;;;6.10;88.30;;;;;;6176083;28;20505;-79
2021/12/19 14:20:51;;;;;;;32.22;15.13;;;6.10;88.50;;;;;;6177553;28;20062;-79
2021/12/19 14:24:08;;;;;;;16.63;6.88;;;6.10;88.30;;;;;;6178714;28;20125;-79
2021/12/19 14:27:19;;;;;;;28.50;14.65;;;6.00;88.30;;;;;;6176087;28;20058;-79
2021/12/19 14:30:23;;;;;;;21.92;11.50;;;5.90;88.70;;;;;;6176786;28;20046;-79
2021/12/19 14:33:33;;;;;;;19.45;8.90;;;6.00;88.90;;;;;;6176422;28;20046;-82
2021/12/19 14:36:35;;;;;;;31.77;14.18;;;5.90;88.80;;;;;;6176151;28;20120;-80
2021/12/19 14:39:37;;;;;;;23.70;10.77;;;5.90;89.10;;;;;;6196245;28;20065;-80
2021/12/19 14:42:40;;;;;;;24.25;12.95;;;5.90;89.00;;;;;;6224966;28;20050;-78
2021/12/19 14:45:47;;;;;;;23.70;8.77;;;6.00;89.00;;;;;;6224493;28;20046;-79
2021/12/19 14:48:49;;;;;;;24.70;10.43;;;6.00;88.80;;;;;;6224949;28;20542;-78
2021/12/19 14:52:00;;;;;;;27.17;9.40;;;6.00;88.80;;;;;;6224298;28;20132;-78
2021/12/19 14:55:09;;;;;;;21.88;8.40;;;6.00;88.80;;;;;;6224450;28;20184;-77
2021/12/19 14:58:13;;;;;;;24.52;9.18;;;5.90;88.70;;;;;;6223813;28;20054;-79
2021/12/19 15:01:20;;;;;;;20.10;9.68;;;5.90;88.50;;;;;;6224038;28;20046;-78
2021/12/19 15:04:23;;;;;;;23.07;9.20;;;5.90;88.60;;;;;;6225359;28;20048;-84
2021/12/19 15:07:26;;;;;;;18.75;8.20;;;5.80;88.80;;;;;;6224874;28;20046;-80
2021/12/19 15:10:28;;;;;;;19.25;8.65;;;5.70;89.10;;;;;;6225923;28;20501;-81
2021/12/19 15:13:31;;;;;;;23.23;8.80;;;5.60;89.40;;;;;;6225104;28;20129;-78
2021/12/19 15:16:35;;;;;;;21.63;8.35;;;5.50;89.80;;;;;;6223168;28;20091;-78
2021/12/19 15:19:36;;;;;;;22.83;9.45;;;5.50;90.20;;;;;;6223978;28;20131;-80
2021/12/19 15:22:41;;;;;;;20.73;8.90;;;5.60;90.00;;;;;;6223508;28;20048;-79
2021/12/19 15:25:45;;;;;;;21.77;7.57;;;5.50;89.80;;;;;;6232786;28;20511;-78
2021/12/19 15:28:49;;;;;;;21.83;8.82;;;5.50;90.00;;;;;;6247212;28;20514;-80
2021/12/19 15:31:52;;;;;;;23.73;9.88;;;5.40;90.10;;;;;;6247129;28;20503;-79
2021/12/19 15:34:54;;;;;;;17.05;7.88;;;5.40;90.10;;;;;;6247521;28;20132;-79
2021/12/19 15:37:56;;;;;;;18.08;8.23;;;5.40;90.10;;;;;;6241642;28;20045;-79
2021/12/19 15:40:58;;;;;;;17.38;7.97;;;5.30;90.10;;;;;;6217108;28;20513;-78
2021/12/19 15:44:00;;;;;;;23.00;8.40;;;5.20;90.30;;;;;;6219895;28;20103;-78
2021/12/19 15:47:03;;;;;;;19.58;8.20;;;5.10;90.40;;;;;;6175395;28;20058;-79
2021/12/19 15:50:07;;;;;;;23.60;9.55;;;5.10;90.60;;;;;;6174161;28;20134;-78
2021/12/19 15:53:12;;;;;;;19.70;7.50;;;5.20;90.60;;;;;;6174020;28;20513;-78
2021/12/19 15:56:14;;;;;;;21.40;8.20;;;5.10;90.50;;;;;;6173749;28;20047;-79
2021/12/19 15:59:16;;;;;;;22.33;8.88;;;5.10;90.50;;;;;;6174269;28;20056;-80
2021/12/19 16:02:19;;;;;;;19.38;8.93;;;5.10;90.50;;;;;;6174657;28;20520;-82
2021/12/19 16:05:22;;;;;;;22.55;9.68;;;5.00;90.50;;;;;;6174712;28;20047;-78
2021/12/19 16:08:24;;;;;;;23.77;8.40;;;5.00;90.70;;;;;;6176918;28;20076;-80
2021/12/19 16:11:26;;;;;;;23.67;9.65;;;5.00;90.70;;;;;;6198530;28;20047;-81
2021/12/19 16:14:27;;;;;;;23.30;10.00;;;4.90;90.70;;;;;;6199572;28;20057;-77
2021/12/19 16:17:31;;;;;;;27.83;10.77;;;4.90;90.80;;;;;;6204976;28;20055;-77
2021/12/19 16:20:33;;;;;;;30.98;10.25;;;4.90;90.80;;;;;;6203946;28;20042;-81
2021/12/19 16:23:34;;;;;;;22.85;8.80;;;4.80;90.80;;;;;;6203905;28;20046;-81
2021/12/19 16:26:36;;;;;;;23.10;10.13;;;4.80;90.90;;;;;;6202377;28;20061;-80
2021/12/19 16:29:38;;;;;;;24.25;10.48;;;4.80;91.00;;;;;;6203405;28;20069;-78
2021/12/19 16:32:41;;;;;;;25.85;9.68;;;4.70;90.90;;;;;;6202950;28;20042;-77
2021/12/19 16:35:44;;;;;;;25.55;10.05;;;4.70;91.10;;;;;;6202311;28;20053;-78
2021/12/19 16:38:49;;;;;;;30.60;9.35;;;4.60;91.20;;;;;;6203894;28;20089;-79
2021/12/19 16:42:02;;;;;;;23.45;10.30;;;4.60;91.40;;;;;;6226730;28;20046;-78
2021/12/19 16:45:04;;;;;;;28.67;9.35;;;4.60;91.30;;;;;;6227622;28;20422;-80